sensor_id;sensor_type;location;lat;lon;timestamp;P1;durP1;ratioP1;P2;durP2;ratioP2
76094;SDS011;64821;13.710;100.604;2023-11-21T00:00:57;13.57;;;8.50;;
76094;SDS011;64821;13.710;100.604;2023-11-21T00:02:01;15.43;;;9.40;;
76094;SDS011;64821;13.710;100.604;2023-11-21T00:03:05;14.50;;;8.93;;
76094;SDS011;64821;13.710;100.604;2023-11-21T00:04:09;14.68;;;8.95;;
76094;SDS011;64821;13.710;100.604;2023-11-21T00:05:13;14.33;;;9.10;;
76094;SDS011;64821;13.710;100.604;2023-11-21T00:06:18;14.55;;;9.13;;
76094;SDS011;64821;13.710;100.604;2023-11-21T00:07:24;15.02;;;9.05;;
76094;SDS011;64821;13.710;100.604;2023-11-21T00:08:28;13.40;;;8.48;;
76094;SDS011;64821;13.710;100.604;2023-11-21T00:09:32;14.73;;;8.63;;
76094;SDS011;64821;13.710;100.604;2023-11-21T00:10:36;13.97;;;8.33;;
76094;SDS011;64821;13.710;100.604;2023-11-21T00:11:39;14.65;;;8.75;;
76094;SDS011;64821;13.710;100.604;2023-11-21T00:12:43;14.88;;;9.07;;
76094;SDS011;64821;13.710;100.604;2023-11-21T00:13:47;14.65;;;8.95;;
76094;SDS011;64821;13.710;100.604;2023-11-21T00:14:52;16.05;;;9.48;;
76094;SDS011;64821;13.710;100.604;2023-11-21T00:15:59;15.03;;;7.90;;
76094;SDS011;64821;13.710;100.604;2023-11-21T00:17:03;17.20;;;9.07;;
76094;SDS011;64821;13.710;100.604;2023-11-21T00:18:08;16.60;;;9.77;;
76094;SDS011;64821;13.710;100.604;2023-11-21T00:19:12;13.65;;;8.23;;
76094;SDS011;64821;13.710;100.604;2023-11-21T00:20:16;13.75;;;8.57;;
76094;SDS011;64821;13.710;100.604;2023-11-21T00:21:20;16.73;;;8.93;;
76094;SDS011;64821;13.710;100.604;2023-11-21T00:22:26;13.80;;;8.45;;
76094;SDS011;64821;13.710;100.604;2023-11-21T00:23:29;16.60;;;10.00;;
76094;SDS011;64821;13.710;100.604;2023-11-21T00:24:33;16.58;;;8.88;;
76094;SDS011;64821;13.710;100.604;2023-11-21T00:25:37;13.43;;;8.32;;
76094;SDS011;64821;13.710;100.604;2023-11-21T00:26:42;13.50;;;8.83;;
76094;SDS011;64821;13.710;100.604;2023-11-21T00:27:46;16.58;;;9.63;;
76094;SDS011;64821;13.710;100.604;2023-11-21T00:28:50;15.63;;;8.85;;
76094;SDS011;64821;13.710;100.604;2023-11-21T00:29:53;12.73;;;8.20;;
76094;SDS011;64821;13.710;100.604;2023-11-21T00:30:57;15.80;;;9.52;;
76094;SDS011;64821;13.710;100.604;2023-11-21T00:32:01;15.23;;;9.40;;
76094;SDS011;64821;13.710;100.604;2023-11-21T00:33:06;13.10;;;8.90;;
76094;SDS011;64821;13.710;100.604;2023-11-21T00:34:11;14.98;;;9.23;;
76094;SDS011;64821;13.710;100.604;2023-11-21T00:35:15;14.75;;;8.50;;
76094;SDS011;64821;13.710;100.604;2023-11-21T00:36:19;19.38;;;9.65;;
76094;SDS011;64821;13.710;100.604;2023-11-21T00:37:23;14.90;;;8.90;;
76094;SDS011;64821;13.710;100.604;2023-11-21T00:38:29;13.25;;;8.63;;
76094;SDS011;64821;13.710;100.604;2023-11-21T00:39:33;16.85;;;9.82;;
76094;SDS011;64821;13.710;100.604;2023-11-21T00:40:37;14.80;;;8.82;;
76094;SDS011;64821;13.710;100.604;2023-11-21T00:41:41;16.85;;;9.52;;
76094;SDS011;64821;13.710;100.604;2023-11-21T00:42:45;16.30;;;9.27;;
76094;SDS011;64821;13.710;100.604;2023-11-21T00:43:48;14.48;;;8.68;;
76094;SDS011;64821;13.710;100.604;2023-11-21T00:44:52;15.30;;;8.32;;
76094;SDS011;64821;13.710;100.604;2023-11-21T00:45:56;13.30;;;8.27;;
76094;SDS011;64821;13.710;100.604;2023-11-21T00:47:00;15.07;;;9.57;;
76094;SDS011;64821;13.710;100.604;2023-11-21T00:48:04;15.17;;;8.27;;
76094;SDS011;64821;13.710;100.604;2023-11-21T00:49:08;12.98;;;8.23;;
76094;SDS011;64821;13.710;100.604;2023-11-21T00:50:12;15.02;;;8.65;;
76094;SDS011;64821;13.710;100.604;2023-11-21T00:51:16;14.65;;;8.50;;
76094;SDS011;64821;13.710;100.604;2023-11-21T00:52:20;14.63;;;9.13;;
76094;SDS011;64821;13.710;100.604;2023-11-21T00:53:26;15.13;;;8.60;;
76094;SDS011;64821;13.710;100.604;2023-11-21T00:54:29;14.05;;;8.15;;
76094;SDS011;64821;13.710;100.604;2023-11-21T00:55:36;13.73;;;8.82;;
76094;SDS011;64821;13.710;100.604;2023-11-21T00:56:40;14.27;;;8.32;;
76094;SDS011;64821;13.710;100.604;2023-11-21T00:57:44;15.77;;;8.73;;
76094;SDS011;64821;13.710;100.604;2023-11-21T00:58:48;15.83;;;8.73;;
76094;SDS011;64821;13.710;100.604;2023-11-21T00:59:52;14.60;;;8.35;;
76094;SDS011;64821;13.710;100.604;2023-11-21T01:00:56;13.25;;;8.38;;
76094;SDS011;64821;13.710;100.604;2023-11-21T01:02:00;13.80;;;8.40;;
76094;SDS011;64821;13.710;100.604;2023-11-21T01:03:04;15.43;;;9.55;;
76094;SDS011;64821;13.710;100.604;2023-11-21T01:04:08;13.70;;;8.17;;
76094;SDS011;64821;13.710;100.604;2023-11-21T01:05:12;13.52;;;8.02;;
76094;SDS011;64821;13.710;100.604;2023-11-21T01:06:16;14.00;;;8.45;;
76094;SDS011;64821;13.710;100.604;2023-11-21T01:07:20;15.98;;;9.48;;
76094;SDS011;64821;13.710;100.604;2023-11-21T01:08:24;13.63;;;8.82;;
76094;SDS011;64821;13.710;100.604;2023-11-21T01:09:29;12.23;;;8.20;;
76094;SDS011;64821;13.710;100.604;2023-11-21T01:10:33;12.82;;;8.82;;
76094;SDS011;64821;13.710;100.604;2023-11-21T01:11:38;13.27;;;8.30;;
76094;SDS011;64821;13.710;100.604;2023-11-21T01:12:42;16.67;;;9.38;;
76094;SDS011;64821;13.710;100.604;2023-11-21T01:13:46;13.10;;;8.25;;
76094;SDS011;64821;13.710;100.604;2023-11-21T01:14:50;16.17;;;8.60;;
76094;SDS011;64821;13.710;100.604;2023-11-21T01:15:54;15.13;;;8.60;;
76094;SDS011;64821;13.710;100.604;2023-11-21T01:16:59;13.25;;;8.60;;
76094;SDS011;64821;13.710;100.604;2023-11-21T01:18:12;14.45;;;8.77;;
76094;SDS011;64821;13.710;100.604;2023-11-21T01:19:16;13.52;;;7.82;;
76094;SDS011;64821;13.710;100.604;2023-11-21T01:20:20;14.70;;;9.73;;
76094;SDS011;64821;13.710;100.604;2023-11-21T01:21:33;13.45;;;8.35;;
76094;SDS011;64821;13.710;100.604;2023-11-21T01:22:37;14.02;;;8.90;;
76094;SDS011;64821;13.710;100.604;2023-11-21T01:23:43;14.00;;;8.52;;
76094;SDS011;64821;13.710;100.604;2023-11-21T01:24:47;14.52;;;8.98;;
76094;SDS011;64821;13.710;100.604;2023-11-21T01:25:51;14.43;;;8.57;;
76094;SDS011;64821;13.710;100.604;2023-11-21T01:26:55;13.15;;;8.60;;
76094;SDS011;64821;13.710;100.604;2023-11-21T01:28:00;16.30;;;8.38;;
76094;SDS011;64821;13.710;100.604;2023-11-21T01:29:07;15.73;;;8.43;;
76094;SDS011;64821;13.710;100.604;2023-11-21T01:30:11;14.73;;;9.32;;
76094;SDS011;64821;13.710;100.604;2023-11-21T01:31:16;14.23;;;8.77;;
76094;SDS011;64821;13.710;100.604;2023-11-21T01:32:20;11.68;;;7.70;;
76094;SDS011;64821;13.710;100.604;2023-11-21T01:33:23;15.23;;;9.07;;
76094;SDS011;64821;13.710;100.604;2023-11-21T01:34:27;13.77;;;8.27;;
76094;SDS011;64821;13.710;100.604;2023-11-21T01:35:31;12.98;;;8.45;;
76094;SDS011;64821;13.710;100.604;2023-11-21T01:36:35;15.83;;;9.00;;
76094;SDS011;64821;13.710;100.604;2023-11-21T01:37:39;11.55;;;7.22;;
76094;SDS011;64821;13.710;100.604;2023-11-21T01:38:45;14.25;;;8.80;;
76094;SDS011;64821;13.710;100.604;2023-11-21T01:39:49;14.35;;;8.43;;
76094;SDS011;64821;13.710;100.604;2023-11-21T01:40:53;11.85;;;7.82;;
76094;SDS011;64821;13.710;100.604;2023-11-21T01:41:57;14.87;;;8.70;;
76094;SDS011;64821;13.710;100.604;2023-11-21T01:43:01;13.63;;;8.30;;
76094;SDS011;64821;13.710;100.604;2023-11-21T01:44:05;15.88;;;8.35;;
76094;SDS011;64821;13.710;100.604;2023-11-21T01:45:09;14.15;;;8.50;;
76094;SDS011;64821;13.710;100.604;2023-11-21T01:46:13;13.02;;;7.68;;
76094;SDS011;64821;13.710;100.604;2023-11-21T01:49:01;14.45;;;8.52;;
76094;SDS011;64821;13.710;100.604;2023-11-21T01:50:06;14.02;;;7.55;;
76094;SDS011;64821;13.710;100.604;2023-11-21T01:51:11;13.00;;;7.70;;
76094;SDS011;64821;13.710;100.604;2023-11-21T01:52:15;17.15;;;8.82;;
76094;SDS011;64821;13.710;100.604;2023-11-21T01:53:19;12.00;;;7.70;;
76094;SDS011;64821;13.710;100.604;2023-11-21T01:54:25;13.27;;;8.20;;
76094;SDS011;64821;13.710;100.604;2023-11-21T01:55:29;11.98;;;7.28;;
76094;SDS011;64821;13.710;100.604;2023-11-21T01:56:33;13.57;;;9.02;;
76094;SDS011;64821;13.710;100.604;2023-11-21T01:57:37;12.63;;;7.47;;
76094;SDS011;64821;13.710;100.604;2023-11-21T01:58:44;13.37;;;7.70;;
76094;SDS011;64821;13.710;100.604;2023-11-21T02:00:07;13.25;;;8.05;;
76094;SDS011;64821;13.710;100.604;2023-11-21T02:01:12;16.50;;;8.75;;
76094;SDS011;64821;13.710;100.604;2023-11-21T02:02:16;15.27;;;8.85;;
76094;SDS011;64821;13.710;100.604;2023-11-21T02:03:20;15.27;;;8.40;;
76094;SDS011;64821;13.710;100.604;2023-11-21T02:04:25;12.70;;;8.37;;
76094;SDS011;64821;13.710;100.604;2023-11-21T02:05:29;12.48;;;7.35;;
76094;SDS011;64821;13.710;100.604;2023-11-21T02:06:33;11.85;;;7.38;;
76094;SDS011;64821;13.710;100.604;2023-11-21T02:07:37;14.63;;;7.97;;
76094;SDS011;64821;13.710;100.604;2023-11-21T02:08:41;13.55;;;8.02;;
76094;SDS011;64821;13.710;100.604;2023-11-21T02:09:46;13.13;;;7.57;;
76094;SDS011;64821;13.710;100.604;2023-11-21T02:10:50;12.57;;;7.25;;
76094;SDS011;64821;13.710;100.604;2023-11-21T02:11:54;13.13;;;7.43;;
76094;SDS011;64821;13.710;100.604;2023-11-21T02:13:00;14.20;;;8.15;;
76094;SDS011;64821;13.710;100.604;2023-11-21T02:14:04;13.30;;;7.22;;
76094;SDS011;64821;13.710;100.604;2023-11-21T02:15:08;14.67;;;8.30;;
76094;SDS011;64821;13.710;100.604;2023-11-21T02:16:12;14.60;;;7.35;;
76094;SDS011;64821;13.710;100.604;2023-11-21T02:17:16;13.50;;;7.85;;
76094;SDS011;64821;13.710;100.604;2023-11-21T02:18:20;13.23;;;7.65;;
76094;SDS011;64821;13.710;100.604;2023-11-21T02:19:24;14.63;;;7.78;;
76094;SDS011;64821;13.710;100.604;2023-11-21T02:20:28;14.90;;;8.10;;
76094;SDS011;64821;13.710;100.604;2023-11-21T02:21:32;13.27;;;7.47;;
76094;SDS011;64821;13.710;100.604;2023-11-21T02:22:37;14.13;;;7.47;;
76094;SDS011;64821;13.710;100.604;2023-11-21T02:23:45;13.13;;;7.78;;
76094;SDS011;64821;13.710;100.604;2023-11-21T02:24:49;12.60;;;7.50;;
76094;SDS011;64821;13.710;100.604;2023-11-21T02:25:55;10.43;;;6.70;;
76094;SDS011;64821;13.710;100.604;2023-11-21T02:26:59;12.25;;;7.28;;
76094;SDS011;64821;13.710;100.604;2023-11-21T02:28:03;14.77;;;7.93;;
76094;SDS011;64821;13.710;100.604;2023-11-21T02:29:07;11.35;;;6.70;;
76094;SDS011;64821;13.710;100.604;2023-11-21T02:30:11;13.13;;;6.95;;
76094;SDS011;64821;13.710;100.604;2023-11-21T02:31:16;11.60;;;6.73;;
76094;SDS011;64821;13.710;100.604;2023-11-21T02:32:20;13.40;;;8.25;;
76094;SDS011;64821;13.710;100.604;2023-11-21T02:33:24;12.38;;;7.22;;
76094;SDS011;64821;13.710;100.604;2023-11-21T02:34:28;13.43;;;7.45;;
76094;SDS011;64821;13.710;100.604;2023-11-21T02:35:31;13.85;;;7.47;;
76094;SDS011;64821;13.710;100.604;2023-11-21T02:36:35;12.30;;;8.00;;
76094;SDS011;64821;13.710;100.604;2023-11-21T02:37:40;13.70;;;7.57;;
76094;SDS011;64821;13.710;100.604;2023-11-21T02:38:45;14.63;;;8.60;;
76094;SDS011;64821;13.710;100.604;2023-11-21T02:39:49;14.35;;;8.43;;
76094;SDS011;64821;13.710;100.604;2023-11-21T02:40:53;12.18;;;7.60;;
76094;SDS011;64821;13.710;100.604;2023-11-21T02:41:57;12.77;;;7.07;;
76094;SDS011;64821;13.710;100.604;2023-11-21T02:43:01;13.10;;;8.10;;
76094;SDS011;64821;13.710;100.604;2023-11-21T02:44:05;14.70;;;8.30;;
76094;SDS011;64821;13.710;100.604;2023-11-21T02:45:09;13.30;;;7.60;;
76094;SDS011;64821;13.710;100.604;2023-11-21T02:46:13;11.80;;;7.50;;
76094;SDS011;64821;13.710;100.604;2023-11-21T02:47:17;14.37;;;7.83;;
76094;SDS011;64821;13.710;100.604;2023-11-21T02:48:21;11.77;;;7.60;;
76094;SDS011;64821;13.710;100.604;2023-11-21T02:49:25;11.23;;;7.60;;
76094;SDS011;64821;13.710;100.604;2023-11-21T02:50:29;13.45;;;7.80;;
76094;SDS011;64821;13.710;100.604;2023-11-21T02:51:33;13.63;;;7.57;;
76094;SDS011;64821;13.710;100.604;2023-11-21T02:52:37;14.40;;;7.83;;
76094;SDS011;64821;13.710;100.604;2023-11-21T02:53:41;13.38;;;7.53;;
76094;SDS011;64821;13.710;100.604;2023-11-21T02:54:47;14.15;;;7.88;;
76094;SDS011;64821;13.710;100.604;2023-11-21T02:55:50;16.63;;;8.32;;
76094;SDS011;64821;13.710;100.604;2023-11-21T02:56:54;11.77;;;7.47;;
76094;SDS011;64821;13.710;100.604;2023-11-21T02:57:58;16.87;;;8.20;;
76094;SDS011;64821;13.710;100.604;2023-11-21T02:59:03;13.13;;;7.55;;
76094;SDS011;64821;13.710;100.604;2023-11-21T03:00:08;12.52;;;7.25;;
76094;SDS011;64821;13.710;100.604;2023-11-21T03:01:12;14.60;;;7.43;;
76094;SDS011;64821;13.710;100.604;2023-11-21T03:02:16;12.70;;;7.82;;
76094;SDS011;64821;13.710;100.604;2023-11-21T03:03:20;17.03;;;8.43;;
76094;SDS011;64821;13.710;100.604;2023-11-21T03:04:28;13.02;;;7.25;;
76094;SDS011;64821;13.710;100.604;2023-11-21T03:05:32;13.82;;;8.20;;
76094;SDS011;64821;13.710;100.604;2023-11-21T03:06:36;13.25;;;7.55;;
76094;SDS011;64821;13.710;100.604;2023-11-21T03:07:40;15.90;;;8.60;;
76094;SDS011;64821;13.710;100.604;2023-11-21T03:08:44;13.50;;;7.60;;
76094;SDS011;64821;13.710;100.604;2023-11-21T03:09:52;17.08;;;8.57;;
76094;SDS011;64821;13.710;100.604;2023-11-21T03:10:56;14.02;;;8.32;;
76094;SDS011;64821;13.710;100.604;2023-11-21T03:12:09;13.45;;;8.45;;
76094;SDS011;64821;13.710;100.604;2023-11-21T03:13:13;13.70;;;7.65;;
76094;SDS011;64821;13.710;100.604;2023-11-21T03:14:17;12.07;;;7.20;;
76094;SDS011;64821;13.710;100.604;2023-11-21T03:15:21;15.63;;;8.55;;
76094;SDS011;64821;13.710;100.604;2023-11-21T03:16:25;14.18;;;7.93;;
76094;SDS011;64821;13.710;100.604;2023-11-21T03:17:29;12.75;;;7.45;;
76094;SDS011;64821;13.710;100.604;2023-11-21T03:18:33;12.68;;;7.95;;
76094;SDS011;64821;13.710;100.604;2023-11-21T03:19:44;16.57;;;9.03;;
76094;SDS011;64821;13.710;100.604;2023-11-21T03:20:49;13.90;;;8.05;;
76094;SDS011;64821;13.710;100.604;2023-11-21T03:21:53;13.00;;;8.23;;
76094;SDS011;64821;13.710;100.604;2023-11-21T03:22:57;12.43;;;7.68;;
76094;SDS011;64821;13.710;100.604;2023-11-21T03:24:01;13.32;;;8.05;;
76094;SDS011;64821;13.710;100.604;2023-11-21T03:25:11;13.60;;;8.57;;
76094;SDS011;64821;13.710;100.604;2023-11-21T03:26:15;11.73;;;7.68;;
76094;SDS011;64821;13.710;100.604;2023-11-21T03:27:19;13.73;;;8.30;;
76094;SDS011;64821;13.710;100.604;2023-11-21T03:28:23;16.15;;;7.20;;
76094;SDS011;64821;13.710;100.604;2023-11-21T03:29:27;14.38;;;7.30;;
76094;SDS011;64821;13.710;100.604;2023-11-21T03:30:31;15.03;;;8.03;;
76094;SDS011;64821;13.710;100.604;2023-11-21T03:31:36;13.07;;;8.25;;
76094;SDS011;64821;13.710;100.604;2023-11-21T03:32:40;12.30;;;7.55;;
76094;SDS011;64821;13.710;100.604;2023-11-21T03:33:44;15.88;;;7.75;;
76094;SDS011;64821;13.710;100.604;2023-11-21T03:34:54;12.02;;;7.20;;
76094;SDS011;64821;13.710;100.604;2023-11-21T03:35:59;13.33;;;7.77;;
76094;SDS011;64821;13.710;100.604;2023-11-21T03:37:03;12.25;;;7.15;;
76094;SDS011;64821;13.710;100.604;2023-11-21T03:38:07;12.25;;;7.65;;
76094;SDS011;64821;13.710;100.604;2023-11-21T03:39:12;14.25;;;7.75;;
76094;SDS011;64821;13.710;100.604;2023-11-21T03:40:18;10.32;;;6.88;;
76094;SDS011;64821;13.710;100.604;2023-11-21T03:41:22;13.70;;;7.13;;
76094;SDS011;64821;13.710;100.604;2023-11-21T03:42:26;13.05;;;7.43;;
76094;SDS011;64821;13.710;100.604;2023-11-21T03:43:30;11.18;;;6.85;;
76094;SDS011;64821;13.710;100.604;2023-11-21T03:44:34;11.82;;;6.88;;
76094;SDS011;64821;13.710;100.604;2023-11-21T03:45:38;13.95;;;7.32;;
76094;SDS011;64821;13.710;100.604;2023-11-21T03:46:42;15.00;;;7.23;;
76094;SDS011;64821;13.710;100.604;2023-11-21T03:47:45;12.32;;;7.40;;
76094;SDS011;64821;13.710;100.604;2023-11-21T03:48:50;14.80;;;7.82;;
76094;SDS011;64821;13.710;100.604;2023-11-21T03:49:54;13.43;;;7.05;;
76094;SDS011;64821;13.710;100.604;2023-11-21T03:50:58;14.30;;;6.70;;
76094;SDS011;64821;13.710;100.604;2023-11-21T03:52:02;10.73;;;6.70;;
76094;SDS011;64821;13.710;100.604;2023-11-21T03:53:06;11.48;;;6.57;;
76094;SDS011;64821;13.710;100.604;2023-11-21T03:54:10;12.60;;;7.07;;
76094;SDS011;64821;13.710;100.604;2023-11-21T03:55:14;13.57;;;6.57;;
76094;SDS011;64821;13.710;100.604;2023-11-21T03:56:20;10.32;;;6.28;;
76094;SDS011;64821;13.710;100.604;2023-11-21T03:57:27;12.77;;;6.80;;
76094;SDS011;64821;13.710;100.604;2023-11-21T03:58:31;13.32;;;7.15;;
76094;SDS011;64821;13.710;100.604;2023-11-21T03:59:35;12.45;;;7.07;;
76094;SDS011;64821;13.710;100.604;2023-11-21T04:00:39;13.18;;;6.85;;
76094;SDS011;64821;13.710;100.604;2023-11-21T04:01:42;12.55;;;7.32;;
76094;SDS011;64821;13.710;100.604;2023-11-21T04:02:46;10.03;;;6.13;;
76094;SDS011;64821;13.710;100.604;2023-11-21T04:03:51;12.77;;;7.25;;
76094;SDS011;64821;13.710;100.604;2023-11-21T04:04:55;13.73;;;7.45;;
76094;SDS011;64821;13.710;100.604;2023-11-21T04:05:59;12.02;;;6.30;;
76094;SDS011;64821;13.710;100.604;2023-11-21T04:07:03;12.13;;;6.63;;
76094;SDS011;64821;13.710;100.604;2023-11-21T04:08:07;12.60;;;7.37;;
76094;SDS011;64821;13.710;100.604;2023-11-21T04:09:11;13.30;;;7.88;;
76094;SDS011;64821;13.710;100.604;2023-11-21T04:10:15;12.88;;;7.50;;
76094;SDS011;64821;13.710;100.604;2023-11-21T04:11:21;11.18;;;6.95;;
76094;SDS011;64821;13.710;100.604;2023-11-21T04:12:25;10.43;;;6.32;;
76094;SDS011;64821;13.710;100.604;2023-11-21T04:13:29;12.03;;;6.37;;
76094;SDS011;64821;13.710;100.604;2023-11-21T04:14:33;11.57;;;6.90;;
76094;SDS011;64821;13.710;100.604;2023-11-21T04:15:37;13.35;;;6.95;;
76094;SDS011;64821;13.710;100.604;2023-11-21T04:16:41;13.13;;;7.60;;
76094;SDS011;64821;13.710;100.604;2023-11-21T04:17:45;11.00;;;7.07;;
76094;SDS011;64821;13.710;100.604;2023-11-21T04:18:49;12.47;;;7.17;;
76094;SDS011;64821;13.710;100.604;2023-11-21T04:19:53;13.32;;;6.80;;
76094;SDS011;64821;13.710;100.604;2023-11-21T04:20:57;13.52;;;6.88;;
76094;SDS011;64821;13.710;100.604;2023-11-21T04:22:01;12.07;;;7.00;;
76094;SDS011;64821;13.710;100.604;2023-11-21T04:23:05;11.73;;;6.13;;
76094;SDS011;64821;13.710;100.604;2023-11-21T04:24:09;13.00;;;6.47;;
76094;SDS011;64821;13.710;100.604;2023-11-21T04:25:13;11.75;;;6.20;;
76094;SDS011;64821;13.710;100.604;2023-11-21T04:26:18;11.77;;;6.15;;
76094;SDS011;64821;13.710;100.604;2023-11-21T04:27:24;14.18;;;6.95;;
76094;SDS011;64821;13.710;100.604;2023-11-21T04:28:27;10.82;;;6.97;;
76094;SDS011;64821;13.710;100.604;2023-11-21T04:29:32;11.63;;;6.20;;
76094;SDS011;64821;13.710;100.604;2023-11-21T04:30:36;13.00;;;7.03;;
76094;SDS011;64821;13.710;100.604;2023-11-21T04:31:40;11.70;;;6.60;;
76094;SDS011;64821;13.710;100.604;2023-11-21T04:32:44;11.10;;;6.78;;
76094;SDS011;64821;13.710;100.604;2023-11-21T04:33:48;11.43;;;6.53;;
76094;SDS011;64821;13.710;100.604;2023-11-21T04:34:51;10.83;;;5.90;;
76094;SDS011;64821;13.710;100.604;2023-11-21T04:35:56;10.57;;;6.43;;
76094;SDS011;64821;13.710;100.604;2023-11-21T04:36:59;11.27;;;6.45;;
76094;SDS011;64821;13.710;100.604;2023-11-21T04:38:03;12.05;;;6.40;;
76094;SDS011;64821;13.710;100.604;2023-11-21T04:39:07;11.65;;;6.50;;
76094;SDS011;64821;13.710;100.604;2023-11-21T04:40:11;12.83;;;6.33;;
76094;SDS011;64821;13.710;100.604;2023-11-21T04:41:15;11.52;;;6.38;;
76094;SDS011;64821;13.710;100.604;2023-11-21T04:42:20;10.57;;;5.70;;
76094;SDS011;64821;13.710;100.604;2023-11-21T04:43:25;12.60;;;6.47;;
76094;SDS011;64821;13.710;100.604;2023-11-21T04:44:29;12.20;;;6.32;;
76094;SDS011;64821;13.710;100.604;2023-11-21T04:45:33;11.30;;;5.87;;
76094;SDS011;64821;13.710;100.604;2023-11-21T04:46:37;11.00;;;5.70;;
76094;SDS011;64821;13.710;100.604;2023-11-21T04:47:41;10.07;;;6.28;;
76094;SDS011;64821;13.710;100.604;2023-11-21T04:48:45;11.18;;;6.13;;
76094;SDS011;64821;13.710;100.604;2023-11-21T04:49:49;11.55;;;6.00;;
76094;SDS011;64821;13.710;100.604;2023-11-21T04:50:53;10.17;;;6.00;;
76094;SDS011;64821;13.710;100.604;2023-11-21T04:51:57;10.02;;;5.80;;
76094;SDS011;64821;13.710;100.604;2023-11-21T04:53:01;10.93;;;5.80;;
76094;SDS011;64821;13.710;100.604;2023-11-21T04:54:05;11.60;;;6.03;;
76094;SDS011;64821;13.710;100.604;2023-11-21T04:55:09;9.45;;;5.90;;
76094;SDS011;64821;13.710;100.604;2023-11-21T04:56:13;11.17;;;5.87;;
76094;SDS011;64821;13.710;100.604;2023-11-21T04:57:17;9.48;;;6.00;;
76094;SDS011;64821;13.710;100.604;2023-11-21T04:58:21;10.40;;;6.35;;
76094;SDS011;64821;13.710;100.604;2023-11-21T04:59:26;10.70;;;5.78;;
76094;SDS011;64821;13.710;100.604;2023-11-21T05:00:30;10.45;;;6.28;;
76094;SDS011;64821;13.710;100.604;2023-11-21T05:01:34;10.33;;;6.03;;
76094;SDS011;64821;13.710;100.604;2023-11-21T05:02:39;11.63;;;6.43;;
76094;SDS011;64821;13.710;100.604;2023-11-21T05:03:43;10.82;;;6.18;;
76094;SDS011;64821;13.710;100.604;2023-11-21T05:04:47;10.10;;;5.30;;
76094;SDS011;64821;13.710;100.604;2023-11-21T05:05:51;10.43;;;5.50;;
76094;SDS011;64821;13.710;100.604;2023-11-21T05:06:55;11.27;;;6.10;;
76094;SDS011;64821;13.710;100.604;2023-11-21T05:07:59;9.85;;;5.80;;
76094;SDS011;64821;13.710;100.604;2023-11-21T05:09:03;11.13;;;6.13;;
76094;SDS011;64821;13.710;100.604;2023-11-21T05:10:08;11.32;;;5.78;;
76094;SDS011;64821;13.710;100.604;2023-11-21T05:11:12;11.23;;;5.80;;
76094;SDS011;64821;13.710;100.604;2023-11-21T05:12:25;11.53;;;5.43;;
76094;SDS011;64821;13.710;100.604;2023-11-21T05:13:29;9.25;;;5.35;;
76094;SDS011;64821;13.710;100.604;2023-11-21T05:14:38;11.35;;;5.88;;
76094;SDS011;64821;13.710;100.604;2023-11-21T05:15:42;12.80;;;5.97;;
76094;SDS011;64821;13.710;100.604;2023-11-21T05:16:46;10.65;;;5.80;;
76094;SDS011;64821;13.710;100.604;2023-11-21T05:17:50;11.17;;;5.90;;
76094;SDS011;64821;13.710;100.604;2023-11-21T05:18:54;10.80;;;6.35;;
76094;SDS011;64821;13.710;100.604;2023-11-21T05:19:58;11.07;;;5.55;;
76094;SDS011;64821;13.710;100.604;2023-11-21T05:21:02;11.05;;;5.57;;
76094;SDS011;64821;13.710;100.604;2023-11-21T05:22:06;10.93;;;6.05;;
76094;SDS011;64821;13.710;100.604;2023-11-21T05:23:10;11.70;;;6.23;;
76094;SDS011;64821;13.710;100.604;2023-11-21T05:24:14;10.15;;;5.55;;
76094;SDS011;64821;13.710;100.604;2023-11-21T05:25:18;10.77;;;6.25;;
76094;SDS011;64821;13.710;100.604;2023-11-21T05:26:22;11.00;;;6.13;;
76094;SDS011;64821;13.710;100.604;2023-11-21T05:27:26;9.68;;;5.60;;
76094;SDS011;64821;13.710;100.604;2023-11-21T05:28:30;8.73;;;5.10;;
76094;SDS011;64821;13.710;100.604;2023-11-21T05:29:34;10.07;;;5.60;;
76094;SDS011;64821;13.710;100.604;2023-11-21T05:30:40;11.07;;;5.47;;
76094;SDS011;64821;13.710;100.604;2023-11-21T05:31:44;9.35;;;5.30;;
76094;SDS011;64821;13.710;100.604;2023-11-21T05:32:48;10.45;;;5.10;;
76094;SDS011;64821;13.710;100.604;2023-11-21T05:33:52;10.50;;;5.10;;
76094;SDS011;64821;13.710;100.604;2023-11-21T05:34:57;10.20;;;4.90;;
76094;SDS011;64821;13.710;100.604;2023-11-21T05:36:00;9.35;;;5.40;;
76094;SDS011;64821;13.710;100.604;2023-11-21T05:37:05;10.40;;;5.07;;
76094;SDS011;64821;13.710;100.604;2023-11-21T05:38:08;10.73;;;5.32;;
76094;SDS011;64821;13.710;100.604;2023-11-21T05:39:13;9.90;;;5.10;;
76094;SDS011;64821;13.710;100.604;2023-11-21T05:40:17;9.73;;;4.78;;
76094;SDS011;64821;13.710;100.604;2023-11-21T05:41:21;10.77;;;5.40;;
76094;SDS011;64821;13.710;100.604;2023-11-21T05:42:25;9.93;;;5.45;;
76094;SDS011;64821;13.710;100.604;2023-11-21T05:43:29;9.93;;;5.35;;
76094;SDS011;64821;13.710;100.604;2023-11-21T05:44:33;9.60;;;5.03;;
76094;SDS011;64821;13.710;100.604;2023-11-21T05:45:37;9.30;;;4.90;;
76094;SDS011;64821;13.710;100.604;2023-11-21T05:46:43;9.98;;;4.82;;
76094;SDS011;64821;13.710;100.604;2023-11-21T05:47:47;10.18;;;5.35;;
76094;SDS011;64821;13.710;100.604;2023-11-21T05:48:51;10.05;;;5.70;;
76094;SDS011;64821;13.710;100.604;2023-11-21T05:49:55;11.67;;;5.70;;
76094;SDS011;64821;13.710;100.604;2023-11-21T05:50:59;11.25;;;4.97;;
76094;SDS011;64821;13.710;100.604;2023-11-21T05:52:03;10.48;;;5.35;;
76094;SDS011;64821;13.710;100.604;2023-11-21T05:53:08;8.25;;;4.97;;
76094;SDS011;64821;13.710;100.604;2023-11-21T05:54:12;9.45;;;5.55;;
76094;SDS011;64821;13.710;100.604;2023-11-21T05:55:16;9.67;;;5.60;;
76094;SDS011;64821;13.710;100.604;2023-11-21T05:56:20;9.85;;;5.50;;
76094;SDS011;64821;13.710;100.604;2023-11-21T05:57:24;9.27;;;5.30;;
76094;SDS011;64821;13.710;100.604;2023-11-21T05:58:28;10.70;;;5.72;;
76094;SDS011;64821;13.710;100.604;2023-11-21T05:59:32;9.55;;;5.38;;
76094;SDS011;64821;13.710;100.604;2023-11-21T06:00:36;10.00;;;5.60;;
76094;SDS011;64821;13.710;100.604;2023-11-21T06:01:40;10.48;;;5.80;;
76094;SDS011;64821;13.710;100.604;2023-11-21T06:02:46;10.82;;;5.72;;
76094;SDS011;64821;13.710;100.604;2023-11-21T06:03:50;11.18;;;6.10;;
76094;SDS011;64821;13.710;100.604;2023-11-21T06:04:54;10.90;;;5.93;;
76094;SDS011;64821;13.710;100.604;2023-11-21T06:05:58;10.43;;;5.90;;
76094;SDS011;64821;13.710;100.604;2023-11-21T06:07:02;10.27;;;5.25;;
76094;SDS011;64821;13.710;100.604;2023-11-21T06:08:06;10.10;;;5.32;;
76094;SDS011;64821;13.710;100.604;2023-11-21T06:09:10;8.85;;;4.95;;
76094;SDS011;64821;13.710;100.604;2023-11-21T06:10:14;11.93;;;6.47;;
76094;SDS011;64821;13.710;100.604;2023-11-21T06:11:18;12.00;;;6.20;;
76094;SDS011;64821;13.710;100.604;2023-11-21T06:12:22;9.50;;;5.18;;
76094;SDS011;64821;13.710;100.604;2023-11-21T06:13:26;9.45;;;5.35;;